createdAt,value
2019-02-22T00:01:21.343Z,81.37
2019-02-22T00:03:50.742Z,89.27
2019-02-22T00:06:20.153Z,94.07
2019-02-22T00:08:49.541Z,88.43
2019-02-22T00:11:18.978Z,90.13
2019-02-22T00:13:48.385Z,89.70
2019-02-22T00:16:17.787Z,86.70
2019-02-22T00:18:47.211Z,87.10
2019-02-22T00:21:16.885Z,88.00
2019-02-22T00:23:46.605Z,97.07
2019-02-22T00:26:16.000Z,98.13
2019-02-22T00:28:45.689Z,94.97
2019-02-22T00:31:15.109Z,96.97
2019-02-22T00:33:44.511Z,102.43
2019-02-22T00:36:14.141Z,99.07
2019-02-22T00:38:43.630Z,98.87
2019-02-22T00:41:13.023Z,107.67
2019-02-22T00:43:42.457Z,94.87
2019-02-22T00:46:11.852Z,98.57
2019-02-22T00:48:41.334Z,98.63
2019-02-22T00:51:11.026Z,105.20
2019-02-22T00:53:40.451Z,103.93
2019-02-22T00:56:10.138Z,95.90
2019-02-22T00:58:39.551Z,98.77
2019-02-22T01:01:08.984Z,101.73
2019-02-22T01:03:38.673Z,111.00
2019-02-22T01:06:08.099Z,100.63
2019-02-22T01:08:37.809Z,110.07
2019-02-22T01:11:07.484Z,105.03
2019-02-22T01:13:36.895Z,112.40
2019-02-22T01:16:06.335Z,125.90
2019-02-22T01:18:35.775Z,118.67
2019-02-22T01:21:05.264Z,124.50
2019-02-22T01:23:34.664Z,127.13
2019-02-22T01:26:04.070Z,130.60
2019-02-22T01:28:33.561Z,147.43
2019-02-22T01:31:02.967Z,139.97
2019-02-22T01:33:32.360Z,131.00
2019-02-22T01:36:01.775Z,141.43
2019-02-22T01:38:31.190Z,141.50
2019-02-22T01:41:00.582Z,141.60
2019-02-22T01:43:30.003Z,151.83
2019-02-22T01:45:59.491Z,142.50
2019-02-22T01:48:28.939Z,152.53
2019-02-22T01:50:58.329Z,148.97
2019-02-22T01:53:27.742Z,160.80
2019-02-22T01:55:57.158Z,154.17
2019-02-22T01:58:26.649Z,147.13
2019-02-22T02:00:56.080Z,147.17
2019-02-22T02:03:25.498Z,168.47
2019-02-22T02:05:54.886Z,179.53
2019-02-22T02:08:24.313Z,182.53
2019-02-22T02:10:54.534Z,163.57
2019-02-22T02:13:24.079Z,159.77
2019-02-22T02:15:53.543Z,162.43
2019-02-22T02:18:22.987Z,160.37
2019-02-22T02:20:52.600Z,211.80
2019-02-22T02:23:22.063Z,211.17
2019-02-22T02:25:51.486Z,164.40
2019-02-22T02:28:21.170Z,203.87
2019-02-22T02:30:50.614Z,228.00
2019-02-22T02:33:20.036Z,162.43
2019-02-22T02:35:49.438Z,185.50
2019-02-22T02:38:18.856Z,173.73
2019-02-22T02:40:48.255Z,175.07
2019-02-22T02:43:17.701Z,268.57
2019-02-22T02:45:47.459Z,191.90
2019-02-22T02:48:16.866Z,218.20
2019-02-22T02:50:46.349Z,292.80
2019-02-22T02:53:15.762Z,193.37
2019-02-22T02:55:45.177Z,197.33
2019-02-22T02:58:14.732Z,191.60
2019-02-22T03:00:44.130Z,241.30
2019-02-22T03:03:13.554Z,213.17
2019-02-22T03:05:59.648Z,219.57
2019-02-22T03:08:30.708Z,182.33
2019-02-22T03:11:00.111Z,241.67
2019-02-22T03:13:29.516Z,165.37
2019-02-22T03:15:58.915Z,167.80
2019-02-22T03:18:28.322Z,204.03
2019-02-22T03:20:57.751Z,168.77
2019-02-22T03:23:27.154Z,207.63
2019-02-22T03:25:56.618Z,161.97
2019-02-22T03:28:26.016Z,214.80
2019-02-22T03:30:55.421Z,164.33
2019-02-22T03:33:24.863Z,164.10
2019-02-22T03:35:54.266Z,218.93
2019-02-22T03:38:23.717Z,349.27
2019-02-22T03:40:53.104Z,190.93
2019-02-22T03:43:22.506Z,204.03
2019-02-22T03:45:51.936Z,196.27
2019-02-22T03:48:21.335Z,303.17
2019-02-22T03:50:50.849Z,279.67
2019-02-22T03:53:21.889Z,209.23
2019-02-22T03:55:51.370Z,298.93
2019-02-22T03:58:20.862Z,188.87
2019-02-22T04:00:50.350Z,198.33
2019-02-22T04:03:19.828Z,230.93
2019-02-22T04:05:49.243Z,241.97
2019-02-22T04:08:18.957Z,216.20
2019-02-22T04:10:48.376Z,255.27
2019-02-22T04:13:17.759Z,225.33
2019-02-22T04:15:47.423Z,227.93
2019-02-22T04:18:16.817Z,263.67
2019-02-22T04:20:46.243Z,217.27
2019-02-22T04:23:15.669Z,215.07
2019-02-22T04:25:45.167Z,207.67
2019-02-22T04:28:14.579Z,197.90
2019-02-22T04:30:43.983Z,215.07
2019-02-22T04:33:13.441Z,214.33
2019-02-22T04:35:42.846Z,239.90
2019-02-22T04:38:12.508Z,193.33
2019-02-22T04:40:41.942Z,232.23
2019-02-22T04:43:11.341Z,187.27
2019-02-22T04:45:40.839Z,183.10
2019-02-22T04:48:10.261Z,206.57
2019-02-22T04:50:39.670Z,210.17
2019-02-22T04:53:09.100Z,200.53
2019-02-22T04:55:38.536Z,297.63
2019-02-22T04:58:07.950Z,217.13
2019-02-22T05:00:37.358Z,260.50
2019-02-22T05:03:06.791Z,281.83
2019-02-22T05:05:36.197Z,272.87
2019-02-22T05:08:05.610Z,380.90
2019-02-22T05:10:35.302Z,408.50
2019-02-22T05:13:04.874Z,188.07
2019-02-22T05:15:34.343Z,310.53
2019-02-22T05:18:03.749Z,173.97
2019-02-22T05:20:33.156Z,191.00
2019-02-22T05:23:04.006Z,196.37
2019-02-22T05:25:33.714Z,251.50
2019-02-22T05:28:03.152Z,195.67
2019-02-22T05:30:32.575Z,295.67
2019-02-22T05:33:01.964Z,202.70
2019-02-22T05:35:31.394Z,259.93
2019-02-22T05:38:00.811Z,227.47
2019-02-22T05:40:30.229Z,384.33
2019-02-22T05:42:59.647Z,534.40
2019-02-22T05:45:29.078Z,214.27
2019-02-22T05:47:58.494Z,388.70
2019-02-22T05:50:27.899Z,230.63
2019-02-22T05:52:57.604Z,359.70
2019-02-22T05:55:27.016Z,200.57
2019-02-22T05:57:56.438Z,443.43
2019-02-22T06:00:25.863Z,270.30
2019-02-22T06:02:55.257Z,266.87
2019-02-22T06:05:24.944Z,249.40
2019-02-22T06:07:54.351Z,534.33
2019-02-22T06:10:23.789Z,233.90
2019-02-22T06:12:53.199Z,235.97
2019-02-22T06:15:22.595Z,206.63
2019-02-22T06:17:52.028Z,202.90
2019-02-22T06:20:21.467Z,218.00
2019-02-22T06:22:50.924Z,231.00
2019-02-22T06:25:20.338Z,217.50
2019-02-22T06:27:49.760Z,284.93
2019-02-22T06:30:19.375Z,222.47
2019-02-22T06:32:48.773Z,216.13
2019-02-22T06:35:18.194Z,219.50
2019-02-22T06:37:47.596Z,199.00
2019-02-22T06:40:17.143Z,193.23
2019-02-22T06:42:46.556Z,279.70
2019-02-22T06:45:16.076Z,183.87
2019-02-22T06:47:45.766Z,186.23
2019-02-22T06:50:15.174Z,153.07
2019-02-22T06:52:44.642Z,197.30
2019-02-22T06:55:14.036Z,219.77
2019-02-22T06:57:43.428Z,301.00
2019-02-22T07:00:14.368Z,183.90
2019-02-22T07:02:43.767Z,171.80
2019-02-22T07:05:13.239Z,176.27
2019-02-22T07:07:42.636Z,263.87
2019-02-22T07:10:12.269Z,188.30
2019-02-22T07:12:43.337Z,151.70
2019-02-22T07:15:12.797Z,137.50
2019-02-22T07:17:42.288Z,212.30
2019-02-22T07:20:12.653Z,134.57
2019-02-22T07:22:42.054Z,163.83
2019-02-22T07:25:12.840Z,137.70
2019-02-22T07:27:42.228Z,120.90
2019-02-22T07:30:12.641Z,163.63
2019-02-22T07:32:42.269Z,141.07
2019-02-22T07:35:14.089Z,165.57
2019-02-22T07:37:42.973Z,140.37
2019-02-22T07:40:12.653Z,120.63
2019-02-22T07:42:42.111Z,110.00
2019-02-22T07:45:12.147Z,132.07
2019-02-22T07:47:41.612Z,141.83
2019-02-22T07:50:11.640Z,284.23
2019-02-22T07:52:41.058Z,143.77
2019-02-22T07:55:11.339Z,131.53
2019-02-22T07:57:40.814Z,136.23
2019-02-22T08:00:14.096Z,145.67
2019-02-22T08:02:43.513Z,126.87
2019-02-22T08:05:12.963Z,240.33
2019-02-22T08:07:42.409Z,186.30
2019-02-22T08:10:11.897Z,140.73
2019-02-22T08:12:41.335Z,175.60
2019-02-22T08:15:11.602Z,148.10
2019-02-22T08:17:41.436Z,174.87
2019-02-22T08:20:11.030Z,189.33
2019-02-22T08:22:40.496Z,187.30
2019-02-22T08:25:10.010Z,124.30
2019-02-22T08:27:41.748Z,194.20
2019-02-22T08:30:11.832Z,143.63
2019-02-22T08:32:41.315Z,156.90
2019-02-22T08:35:10.806Z,120.30
2019-02-22T08:37:40.292Z,123.47
2019-02-22T08:40:11.251Z,112.80
2019-02-22T08:42:40.683Z,102.23
2019-02-22T08:45:11.032Z,108.47
2019-02-22T08:47:40.440Z,99.87
2019-02-22T08:50:10.090Z,139.13
2019-02-22T08:52:39.516Z,96.57
2019-02-22T08:55:08.996Z,88.20
2019-02-22T08:57:38.407Z,91.43
2019-02-22T09:00:12.333Z,103.50
2019-02-22T09:02:42.023Z,132.80
2019-02-22T09:05:11.559Z,84.77
2019-02-22T09:07:40.991Z,122.33
2019-02-22T09:10:12.399Z,101.43
2019-02-22T09:12:41.863Z,101.90
2019-02-22T09:15:11.803Z,102.67
2019-02-22T09:17:41.286Z,89.20
2019-02-22T09:20:12.619Z,102.17
2019-02-22T09:22:42.046Z,94.17
2019-02-22T09:25:11.544Z,96.43
2019-02-22T09:27:41.224Z,82.47
2019-02-22T09:30:12.459Z,81.67
2019-02-22T09:32:41.909Z,83.63
2019-02-22T09:35:14.252Z,85.70
2019-02-22T09:37:43.702Z,102.03
2019-02-22T09:40:14.728Z,93.43
2019-02-22T09:42:44.373Z,109.23
2019-02-22T09:45:14.089Z,93.77
2019-02-22T09:47:43.518Z,106.17
2019-02-22T09:50:15.646Z,96.77
2019-02-22T09:52:45.232Z,98.50
2019-02-22T09:55:14.755Z,110.53
2019-02-22T09:57:44.261Z,94.20
2019-02-22T10:00:15.366Z,94.73
2019-02-22T10:02:45.091Z,86.60
2019-02-22T10:05:15.526Z,85.93
2019-02-22T10:07:44.921Z,96.97
2019-02-22T10:10:14.448Z,82.07
2019-02-22T10:12:43.862Z,92.60
2019-02-22T10:15:13.424Z,85.33
2019-02-22T10:17:42.853Z,71.00
2019-02-22T10:20:12.786Z,65.53
2019-02-22T10:22:42.190Z,64.83
2019-02-22T10:25:11.628Z,74.73
2019-02-22T10:27:41.034Z,72.50
2019-02-22T10:30:13.792Z,73.97
2019-02-22T10:32:43.339Z,73.37
2019-02-22T10:35:12.826Z,74.33
2019-02-22T10:37:42.288Z,77.20
2019-02-22T10:40:11.930Z,81.43
2019-02-22T10:42:41.348Z,76.23
2019-02-22T10:45:11.706Z,74.10
2019-02-22T10:47:41.145Z,71.53
2019-02-22T10:50:11.030Z,77.53
2019-02-22T10:52:40.446Z,68.63
2019-02-22T10:55:12.461Z,71.07
2019-02-22T10:57:41.904Z,68.57
2019-02-22T11:00:14.837Z,73.97
2019-02-22T11:02:44.267Z,78.43
2019-02-22T11:05:13.741Z,82.67
2019-02-22T11:07:43.270Z,74.47
2019-02-22T11:10:14.541Z,89.37
2019-02-22T11:12:44.125Z,85.70
2019-02-22T11:15:14.309Z,85.47
2019-02-22T11:17:43.738Z,80.60
2019-02-22T11:20:13.338Z,73.10
2019-02-22T11:22:43.020Z,80.13
2019-02-22T11:25:14.898Z,88.27
2019-02-22T11:27:44.332Z,80.07
2019-02-22T11:30:15.475Z,80.90
2019-02-22T11:32:45.003Z,83.27
2019-02-22T11:35:14.579Z,86.23
2019-02-22T11:37:44.283Z,87.17
2019-02-22T11:40:13.842Z,88.73
2019-02-22T11:42:43.531Z,91.53
2019-02-22T11:45:13.024Z,88.70
2019-02-22T11:47:42.437Z,91.17
2019-02-22T11:50:13.467Z,87.23
2019-02-22T11:52:42.867Z,79.47
2019-02-22T11:55:13.124Z,77.43
2019-02-22T11:57:43.007Z,69.10
2019-02-22T12:00:20.869Z,67.83
2019-02-22T12:02:50.324Z,63.57
2019-02-22T12:05:19.995Z,61.43
2019-02-22T12:07:49.443Z,57.67
2019-02-22T12:10:18.902Z,58.13
2019-02-22T12:12:48.629Z,61.97
2019-02-22T12:15:18.089Z,61.23
2019-02-22T12:17:47.512Z,53.83
2019-02-22T12:20:16.925Z,57.80
2019-02-22T12:22:46.370Z,54.40
2019-02-22T12:25:15.803Z,54.33
2019-02-22T12:27:45.245Z,51.53
2019-02-22T12:30:18.443Z,54.50
2019-02-22T12:32:47.887Z,62.57
2019-02-22T12:35:17.349Z,60.83
2019-02-22T12:37:46.839Z,58.63
2019-02-22T12:40:16.408Z,62.57
2019-02-22T12:42:46.093Z,62.70
2019-02-22T12:45:15.893Z,59.83
2019-02-22T12:47:45.588Z,59.00
2019-02-22T12:50:15.175Z,54.17
2019-02-22T12:52:44.593Z,55.10
2019-02-22T12:55:14.080Z,60.73
2019-02-22T12:57:43.501Z,55.63
2019-02-22T13:00:18.164Z,58.90
2019-02-22T13:02:47.567Z,54.87
2019-02-22T13:05:24.195Z,59.67
2019-02-22T13:07:53.591Z,54.23
2019-02-22T13:10:23.071Z,59.03
2019-02-22T13:12:52.501Z,57.10
2019-02-22T13:15:21.948Z,55.80
2019-02-22T13:17:51.455Z,58.23
2019-02-22T13:20:20.947Z,59.20
2019-02-22T13:22:50.378Z,55.70
2019-02-22T13:25:19.851Z,53.40
2019-02-22T13:27:49.284Z,51.93
2019-02-22T13:30:18.751Z,59.03
2019-02-22T13:32:48.491Z,55.10
2019-02-22T13:35:17.929Z,57.20
2019-02-22T13:37:47.359Z,54.00
2019-02-22T13:40:18.093Z,52.30
2019-02-22T13:42:47.499Z,54.13
2019-02-22T13:45:26.261Z,57.93
2019-02-22T13:47:48.603Z,54.60
2019-02-22T13:50:19.610Z,60.33
2019-02-22T13:52:49.040Z,52.20
2019-02-22T13:55:18.468Z,58.40
2019-02-22T13:57:47.977Z,58.57
2019-02-22T14:00:20.264Z,61.47
2019-02-22T14:02:49.679Z,60.23
2019-02-22T14:05:19.123Z,59.70
2019-02-22T14:07:58.592Z,61.27
2019-02-22T14:10:28.213Z,63.57
2019-02-22T14:12:57.619Z,60.63
2019-02-22T14:15:37.431Z,60.07
2019-02-22T14:17:58.182Z,61.90
2019-02-22T14:20:27.588Z,63.10
2019-02-22T14:22:57.029Z,59.50
2019-02-22T14:25:26.436Z,62.40
2019-02-22T14:27:55.847Z,60.60
2019-02-22T14:30:25.265Z,63.43
2019-02-22T14:32:54.687Z,63.67
2019-02-22T14:35:24.122Z,66.70
2019-02-22T14:37:53.563Z,64.47
2019-02-22T14:40:23.067Z,64.20
2019-02-22T14:42:52.460Z,65.10
2019-02-22T14:45:21.880Z,63.33
2019-02-22T14:47:51.428Z,59.90
2019-02-22T14:50:23.137Z,58.33
2019-02-22T14:52:52.131Z,64.00
2019-02-22T14:55:21.529Z,58.77
2019-02-22T14:57:50.955Z,60.33
2019-02-22T15:00:22.084Z,61.43
2019-02-22T15:02:51.578Z,66.00
2019-02-22T15:05:21.021Z,56.43
2019-02-22T15:07:50.594Z,64.97
2019-02-22T15:10:20.016Z,54.10
2019-02-22T15:12:49.558Z,58.53
2019-02-22T15:15:22.104Z,64.53
2019-02-22T15:17:53.176Z,55.30
2019-02-22T15:20:23.003Z,56.20
2019-02-22T15:22:52.617Z,51.87
2019-02-22T15:25:22.031Z,53.17
2019-02-22T15:27:51.525Z,56.17
2019-02-22T15:30:21.147Z,52.63
2019-02-22T15:32:50.595Z,55.63
2019-02-22T15:35:20.231Z,60.37
2019-02-22T15:37:49.905Z,50.90
2019-02-22T15:40:19.384Z,58.27
2019-02-22T15:42:48.807Z,63.10
2019-02-22T15:45:19.858Z,58.60
2019-02-22T15:47:49.576Z,61.83
2019-02-22T15:50:19.996Z,61.40
2019-02-22T15:52:50.396Z,64.20
2019-02-22T15:55:19.901Z,56.00
2019-02-22T15:57:49.335Z,57.53
2019-02-22T16:00:23.454Z,54.27
2019-02-22T16:02:52.874Z,53.33
2019-02-22T16:05:29.903Z,54.63
2019-02-22T16:07:59.407Z,52.13
2019-02-22T16:10:28.964Z,57.03
2019-02-22T16:12:58.469Z,53.83
2019-02-22T16:15:27.948Z,55.90
2019-02-22T16:17:57.390Z,59.10
2019-02-22T16:20:32.940Z,52.07
2019-02-22T16:23:02.376Z,59.03
2019-02-22T16:25:31.773Z,61.63
2019-02-22T16:28:01.186Z,64.37
2019-02-22T16:30:31.732Z,65.47
2019-02-22T16:33:01.201Z,69.80
2019-02-22T16:35:30.694Z,62.03
2019-02-22T16:38:00.130Z,63.07
2019-02-22T16:40:29.883Z,64.10
2019-02-22T16:42:59.318Z,57.90
2019-02-22T16:45:28.726Z,64.53
2019-02-22T16:51:16.475Z,58.23
2019-02-22T16:53:45.888Z,58.60
2019-02-22T16:56:15.316Z,57.33
2019-02-22T16:58:44.753Z,56.40
2019-02-22T17:01:14.234Z,59.20
2019-02-22T17:03:43.659Z,51.67
2019-02-22T17:06:13.093Z,44.37
2019-02-22T17:08:42.813Z,54.77
2019-02-22T17:11:12.326Z,47.67
2019-02-22T17:13:41.856Z,46.13
2019-02-22T17:16:11.425Z,45.20
2019-02-22T17:18:43.009Z,44.80
2019-02-22T17:21:12.855Z,38.40
2019-02-22T17:23:42.409Z,36.57
2019-02-22T17:26:14.623Z,34.00
2019-02-22T17:28:44.057Z,32.23
2019-02-22T17:31:13.877Z,35.33
2019-02-22T17:33:43.323Z,33.10
2019-02-22T17:36:12.742Z,30.57
2019-02-22T17:38:42.173Z,33.17
2019-02-22T17:41:11.657Z,35.00
2019-02-22T17:43:41.130Z,34.43
2019-02-22T17:46:10.554Z,34.97
2019-02-22T17:48:40.370Z,37.23
2019-02-22T17:51:09.799Z,35.63
2019-02-22T17:53:39.247Z,38.83
2019-02-22T17:56:08.813Z,39.33
2019-02-22T17:58:38.254Z,39.73
2019-02-22T18:01:08.133Z,41.43
2019-02-22T18:03:37.563Z,41.40
2019-02-22T18:06:07.004Z,45.87
2019-02-22T18:08:36.500Z,44.63
2019-02-22T18:11:05.947Z,41.17
2019-02-22T18:13:35.417Z,46.07
2019-02-22T18:16:05.188Z,48.20
2019-02-22T18:18:34.651Z,55.20
2019-02-22T18:21:04.172Z,53.70
2019-02-22T18:23:33.944Z,58.00
2019-02-22T18:26:03.385Z,50.50
2019-02-22T18:28:32.866Z,57.43
2019-02-22T18:31:02.337Z,59.80
2019-02-22T18:33:31.778Z,59.47
2019-02-22T18:36:01.205Z,60.97
2019-02-22T18:38:30.658Z,55.80
2019-02-22T18:41:00.087Z,60.17
2019-02-22T18:43:29.557Z,64.20
2019-02-22T18:45:58.976Z,59.37
2019-02-22T18:48:28.865Z,59.73
2019-02-22T18:50:58.383Z,58.13
2019-02-22T18:53:27.848Z,52.20
2019-02-22T18:55:57.373Z,61.93
2019-02-22T18:58:26.791Z,54.13
2019-02-22T19:00:56.378Z,59.40
2019-02-22T19:03:25.798Z,64.37
2019-02-22T19:05:55.312Z,63.00
2019-02-22T19:08:32.053Z,62.07
2019-02-22T19:10:55.932Z,59.27
2019-02-22T19:13:25.496Z,61.23
2019-02-22T19:15:54.969Z,56.20
2019-02-22T19:18:24.462Z,64.90
2019-02-22T19:20:54.248Z,64.67
2019-02-22T19:23:24.304Z,66.90
2019-02-22T19:25:53.743Z,65.13
2019-02-22T19:28:23.297Z,66.93
2019-02-22T19:30:52.716Z,68.20
2019-02-22T19:33:22.470Z,67.37
2019-02-22T19:35:52.354Z,68.67
2019-02-22T19:38:22.008Z,63.13
2019-02-22T19:40:51.692Z,62.90
2019-02-22T19:43:23.538Z,73.27
2019-02-22T19:45:53.057Z,76.80
2019-02-22T19:48:22.693Z,67.73
2019-02-22T19:50:52.611Z,68.63
2019-02-22T19:53:22.220Z,82.13
2019-02-22T19:55:51.859Z,71.80
2019-02-22T19:58:21.487Z,66.07
2019-02-22T20:00:51.005Z,67.03
2019-02-22T20:03:20.609Z,58.73
2019-02-22T20:05:50.025Z,74.23
2019-02-22T20:08:19.804Z,68.60
2019-02-22T20:10:49.309Z,82.47
2019-02-22T20:13:18.759Z,79.47
2019-02-22T20:15:48.512Z,78.97
2019-02-22T20:18:18.012Z,81.80
2019-02-22T20:20:47.474Z,75.27
2019-02-22T20:23:16.905Z,83.97
2019-02-22T20:25:46.340Z,81.97
2019-02-22T20:28:15.806Z,84.60
2019-02-22T20:30:45.211Z,72.93
2019-02-22T20:33:14.676Z,71.63
2019-02-22T20:35:44.799Z,89.37
2019-02-22T20:38:14.263Z,91.93
2019-02-22T20:40:43.694Z,92.37
2019-02-22T20:43:13.118Z,81.67
2019-02-22T20:45:42.695Z,85.27
2019-02-22T20:48:12.110Z,90.47
2019-02-22T20:50:41.537Z,90.23
2019-02-22T20:53:10.992Z,88.17
2019-02-22T20:55:40.407Z,89.90
2019-02-22T20:58:09.858Z,95.83
2019-02-22T21:00:39.631Z,91.63
2019-02-22T21:03:09.083Z,100.10
2019-02-22T21:05:38.502Z,77.87
2019-02-22T21:08:07.988Z,71.33
2019-02-22T21:10:37.492Z,63.70
2019-02-22T21:13:06.936Z,84.90
2019-02-22T21:15:36.384Z,72.13
2019-02-22T21:18:15.863Z,72.00
2019-02-22T21:20:37.009Z,78.67
2019-02-22T21:23:06.717Z,74.10
2019-02-22T21:25:36.155Z,70.37
2019-02-22T21:28:05.659Z,84.63
2019-02-22T21:30:35.505Z,76.50
2019-02-22T21:33:05.303Z,76.70
2019-02-22T21:35:34.815Z,81.70
2019-02-22T21:38:04.304Z,81.90
2019-02-22T21:40:33.759Z,103.23
2019-02-22T21:43:03.184Z,120.80
2019-02-22T21:45:33.022Z,94.33
2019-02-22T21:48:02.425Z,91.87
2019-02-22T21:50:31.850Z,85.33
2019-02-22T21:53:01.306Z,98.03
2019-02-22T21:55:30.714Z,89.07
2019-02-22T21:58:00.155Z,81.70
2019-02-22T22:00:31.385Z,82.13
2019-02-22T22:03:00.872Z,78.77
2019-02-22T22:05:30.476Z,80.67
2019-02-22T22:07:59.895Z,80.10
2019-02-22T22:10:29.479Z,100.77
2019-02-22T22:12:58.891Z,104.07
2019-02-22T22:15:28.313Z,93.60
2019-02-22T22:17:57.744Z,99.03
2019-02-22T22:20:27.171Z,104.27
2019-02-22T22:22:56.584Z,91.17
2019-02-22T22:25:26.000Z,97.77
2019-02-22T22:27:55.521Z,101.07
2019-02-22T22:30:25.030Z,107.70
2019-02-22T22:32:54.447Z,126.23
2019-02-22T22:35:23.867Z,101.77
2019-02-22T22:37:53.289Z,88.23
2019-02-22T22:40:22.815Z,90.10
2019-02-22T22:42:52.210Z,85.60
2019-02-22T22:45:21.658Z,77.57
2019-02-22T22:47:51.155Z,77.73
2019-02-22T22:50:20.653Z,92.53
2019-02-22T22:52:50.479Z,75.93
2019-02-22T22:55:19.899Z,81.07
2019-02-22T22:57:49.330Z,117.10
2019-02-22T23:00:52.635Z,90.90
2019-02-22T23:03:22.552Z,106.50
2019-02-22T23:05:52.086Z,129.40
2019-02-22T23:08:21.582Z,106.43
2019-02-22T23:10:51.168Z,107.57
2019-02-22T23:13:20.889Z,138.43
2019-02-22T23:15:50.378Z,176.80
2019-02-22T23:18:19.966Z,173.93
2019-02-22T23:20:49.734Z,146.07
2019-02-22T23:23:19.170Z,143.00
2019-02-22T23:25:48.689Z,123.83
2019-02-22T23:28:18.121Z,142.60
2019-02-22T23:30:47.539Z,144.60
2019-02-22T23:33:17.045Z,160.87
2019-02-22T23:35:46.547Z,172.73
2019-02-22T23:38:15.960Z,165.33
2019-02-22T23:40:45.388Z,151.80
2019-02-22T23:43:14.913Z,160.77
2019-02-22T23:45:44.325Z,167.73
2019-02-22T23:48:13.836Z,157.50
2019-02-22T23:50:43.249Z,162.33
2019-02-22T23:53:12.712Z,168.47
2019-02-22T23:55:42.530Z,174.43
2019-02-22T23:58:11.956Z,200.33
